Time;durP1;ratioP1;P1;durP2;ratioP2;P2;SDS_P1;SDS_P2;PMS_P1;PMS_P2;Temp;Humidity;BMP_temperature;BMP_pressure;BME280_temperature;BME280_humidity;BME280_pressure;Samples;Min_cycle;Max_cycle;Signal;HPM_P1;HPM_P2
2023/09/09 00:01:45;;;;;;;12.10;9.00;;;;;;;13.71;74.18;97728.96;104803;1254;106806;-82
2023/09/09 00:04:13;;;;;;;12.00;9.80;;;;;;;13.69;74.25;97722.21;104977;1258;96677;-73
2023/09/09 00:06:41;;;;;;;11.80;9.50;;;;;;;13.67;74.24;97723.98;104863;1259;97092;-81
2023/09/09 00:09:09;;;;;;;12.50;9.50;;;;;;;13.64;74.35;97724.14;104988;1270;102105;-80
2023/09/09 00:11:37;;;;;;;11.50;9.50;;;;;;;13.61;74.20;97718.92;104882;1254;100338;-80
2023/09/09 00:14:04;;;;;;;13.10;9.30;;;;;;;13.57;74.22;97720.41;104892;1258;99991;-81
2023/09/09 00:16:36;;;;;;;10.70;9.00;;;;;;;13.53;74.27;97720.36;104830;1259;97519;-74
2023/09/09 00:19:04;;;;;;;12.20;9.80;;;;;;;13.49;74.37;97720.23;104881;1260;96567;-73
2023/09/09 00:21:31;;;;;;;13.10;9.70;;;;;;;13.41;74.34;97717.04;104886;1267;101278;-73
2023/09/09 00:23:59;;;;;;;13.40;10.00;;;;;;;13.32;74.44;97715.45;104911;1259;101621;-73
2023/09/09 00:26:28;;;;;;;15.50;10.40;;;;;;;13.26;74.67;97712.55;104876;1260;99953;-73
2023/09/09 00:28:56;;;;;;;13.50;10.80;;;;;;;13.26;74.86;97710.80;104853;1258;96685;-73
2023/09/09 00:31:24;;;;;;;16.10;11.10;;;;;;;13.25;74.77;97710.30;104943;1260;97090;-82
2023/09/09 00:33:54;;;;;;;14.20;11.30;;;;;;;13.25;74.89;97707.59;104595;1264;102287;-81
2023/09/09 00:36:21;;;;;;;14.40;11.30;;;;;;;13.17;75.23;97707.84;105023;1259;100354;-81
2023/09/09 00:38:49;;;;;;;15.90;11.60;;;;;;;13.08;75.56;97710.98;104582;1263;99307;-81
2023/09/09 00:41:18;;;;;;;17.80;12.10;;;;;;;13.02;75.87;97708.98;104590;1259;96701;-81
2023/09/09 00:43:47;;;;;;;16.10;11.70;;;;;;;12.95;76.11;97713.90;104597;1280;97368;-75
2023/09/09 00:46:16;;;;;;;16.90;12.60;;;;;;;12.93;76.16;97710.20;104636;1262;102284;-75
2023/09/09 00:48:44;;;;;;;17.40;12.40;;;;;;;12.95;76.06;97710.60;104640;1263;101478;-74
2023/09/09 00:51:13;;;;;;;16.90;12.30;;;;;;;12.98;76.09;97710.21;104441;1264;98788;-74
2023/09/09 00:53:42;;;;;;;16.10;12.40;;;;;;;12.99;76.28;97713.55;104441;1276;96728;-74
2023/09/09 00:56:10;;;;;;;22.10;13.00;;;;;;;12.94;76.47;97710.77;104662;1262;97400;-74
2023/09/09 00:58:38;;;;;;;19.00;11.80;;;;;;;12.92;76.69;97708.27;104603;1270;102275;-74
2023/09/09 01:01:09;;;;;;;16.70;12.00;;;;;;;12.93;76.70;97707.66;104651;1263;100092;-81
2023/09/09 01:03:37;;;;;;;14.20;11.60;;;;;;;12.97;76.74;97707.17;104628;1263;99177;-81
2023/09/09 01:06:05;;;;;;;15.60;11.40;;;;;;;12.98;76.59;97711.21;104572;1270;96741;-81
2023/09/09 01:08:32;;;;;;;15.60;11.80;;;;;;;12.96;76.44;97709.64;104579;1262;98010;-82
2023/09/09 01:11:00;;;;;;;17.30;11.30;;;;;;;12.96;76.49;97711.05;104784;1259;102424;-81
2023/09/09 01:13:29;;;;;;;12.60;11.20;;;;;;;12.97;76.47;97711.68;104887;1270;101408;-81
2023/09/09 01:15:57;;;;;;;16.60;11.40;;;;;;;12.96;76.38;97711.92;104990;1260;98587;-74
2023/09/09 01:18:25;;;;;;;17.10;10.60;;;;;;;12.95;76.29;97711.94;104931;1269;96573;-74
2023/09/09 01:21:05;;;;;;;15.70;11.30;;;;;;;12.94;76.35;97714.48;104705;1257;97041;-82
2023/09/09 01:23:33;;;;;;;17.50;11.40;;;;;;;12.94;76.41;97711.95;104551;1272;102294;-82
2023/09/09 01:26:00;;;;;;;14.70;11.50;;;;;;;12.93;76.48;97712.67;104659;1271;100337;-81
2023/09/09 01:28:28;;;;;;;14.70;11.50;;;;;;;12.92;76.37;97709.94;104645;1259;100076;-82
2023/09/09 01:30:56;;;;;;;15.50;11.90;;;;;;;12.90;76.21;97712.33;104665;1257;97960;-74
2023/09/09 01:33:24;;;;;;;15.70;10.90;;;;;;;12.89;76.35;97710.61;104689;1269;97432;-74
2023/09/09 01:35:51;;;;;;;20.90;12.00;;;;;;;12.87;76.41;97712.55;104668;1263;102215;-75
2023/09/09 01:38:19;;;;;;;15.50;10.30;;;;;;;12.86;76.35;97714.05;104705;1258;101585;-73
2023/09/09 01:40:47;;;;;;;14.10;11.10;;;;;;;12.82;76.24;97712.73;104764;1259;99817;-74
2023/09/09 01:43:15;;;;;;;13.60;10.60;;;;;;;12.79;76.30;97712.09;104667;1260;96672;-74
2023/09/09 01:45:43;;;;;;;14.70;10.80;;;;;;;12.77;76.36;97708.86;104688;1260;97472;-75
2023/09/09 01:48:10;;;;;;;15.80;11.40;;;;;;;12.74;76.18;97708.54;104679;1259;102322;-75
2023/09/09 01:50:38;;;;;;;14.70;10.60;;;;;;;12.71;76.33;97708.39;104664;1260;99985;-74
2023/09/09 01:53:06;;;;;;;12.60;10.10;;;;;;;12.65;76.57;97706.17;104806;1260;99379;-74
2023/09/09 01:55:33;;;;;;;14.50;10.90;;;;;;;12.52;76.63;97704.29;104874;1259;96527;-74
2023/09/09 01:58:01;;;;;;;13.90;11.30;;;;;;;12.42;76.77;97705.30;104591;1262;97179;-74
2023/09/09 02:00:30;;;;;;;12.10;10.70;;;;;;;12.37;77.00;97707.40;104742;1275;102564;-82
2023/09/09 02:02:58;;;;;;;16.80;10.80;;;;;;;12.38;77.13;97708.91;104868;1258;100098;-82
2023/09/09 02:05:26;;;;;;;12.50;10.30;;;;;;;12.41;77.02;97707.64;104963;1260;100031;-82
2023/09/09 02:07:53;;;;;;;14.50;10.60;;;;;;;12.42;77.08;97711.34;104879;1273;97100;-82
2023/09/09 02:10:21;;;;;;;16.20;11.30;;;;;;;12.45;77.16;97712.93;104906;1269;98393;-81
2023/09/09 02:12:48;;;;;;;17.50;10.80;;;;;;;12.47;77.20;97708.30;104876;1259;101288;-82
2023/09/09 02:15:16;;;;;;;13.30;11.10;;;;;;;12.49;77.22;97710.92;104883;1259;101669;-82
2023/09/09 02:17:47;;;;;;;15.00;11.90;;;;;;;12.49;77.14;97707.96;104806;1268;100029;-74
2023/09/09 02:20:14;;;;;;;17.90;11.60;;;;;;;12.49;77.23;97705.72;104872;1260;96629;-74
2023/09/09 02:22:42;;;;;;;16.30;11.60;;;;;;;12.49;77.27;97704.80;104853;1259;97230;-74
2023/09/09 02:25:10;;;;;;;13.60;10.20;;;;;;;12.48;77.13;97704.02;104828;1259;103813;-74
2023/09/09 02:27:37;;;;;;;13.40;10.30;;;;;;;12.46;77.18;97702.64;104919;1264;101582;-74
2023/09/09 02:30:06;;;;;;;15.70;11.00;;;;;;;12.45;77.13;97706.10;104870;1260;100139;-75
2023/09/09 02:32:33;;;;;;;13.00;10.50;;;;;;;12.45;77.18;97712.77;104864;1258;97903;-75
2023/09/09 02:35:01;;;;;;;14.10;11.00;;;;;;;12.44;77.09;97712.52;104804;1260;97013;-74
2023/09/09 02:37:29;;;;;;;16.10;11.40;;;;;;;12.43;77.16;97712.04;104884;1267;102415;-74
2023/09/09 02:39:57;;;;;;;12.70;10.50;;;;;;;12.41;77.18;97708.17;104843;1276;101440;-82
2023/09/09 02:42:25;;;;;;;15.20;11.40;;;;;;;12.39;77.16;97708.73;104630;1262;100161;-81
2023/09/09 02:44:52;;;;;;;16.10;11.20;;;;;;;12.39;77.12;97706.10;104869;1259;97415;-81
2023/09/09 02:47:20;;;;;;;13.50;10.50;;;;;;;12.37;77.00;97705.28;104909;1268;97536;-80
2023/09/09 02:49:49;;;;;;;12.90;10.10;;;;;;;12.35;77.03;97708.27;104976;1260;101239;-81
2023/09/09 02:52:17;;;;;;;14.20;9.60;;;;;;;12.33;77.03;97707.24;104603;1272;108446;-81
2023/09/09 02:54:45;;;;;;;12.10;9.80;;;;;;;12.30;77.04;97704.61;104671;1278;98913;-81
2023/09/09 02:57:12;;;;;;;14.20;10.20;;;;;;;12.25;77.14;97705.25;104598;1262;98060;-81
2023/09/09 02:59:40;;;;;;;15.80;10.50;;;;;;;12.22;77.23;97705.00;104586;1273;96670;-81
2023/09/09 03:02:08;;;;;;;13.30;9.50;;;;;;;12.18;77.19;97705.89;104637;1257;102171;-81
2023/09/09 03:04:35;;;;;;;16.90;10.00;;;;;;;12.15;77.20;97706.05;104682;1263;101125;-82
2023/09/09 03:07:03;;;;;;;10.10;8.80;;;;;;;12.13;77.18;97706.87;104626;1270;98966;-81
2023/09/09 03:09:33;;;;;;;13.30;10.00;;;;;;;12.12;77.15;97707.96;104583;1262;97230;-82
2023/09/09 03:12:01;;;;;;;13.40;10.30;;;;;;;12.09;77.11;97704.13;104504;1257;97232;-82
2023/09/09 03:14:29;;;;;;;13.80;10.80;;;;;;;12.09;77.32;97702.89;104659;1262;101282;-81
2023/09/09 03:16:58;;;;;;;13.70;10.80;;;;;;;12.09;77.38;97700.52;104651;1259;100169;-81
2023/09/09 03:19:26;;;;;;;12.30;9.90;;;;;;;12.06;77.61;97701.04;104677;1269;99927;-81
2023/09/09 03:21:54;;;;;;;15.90;11.20;;;;;;;11.99;77.64;97699.35;104648;1267;97541;-81
2023/09/09 03:24:22;;;;;;;12.80;10.90;;;;;;;11.91;77.78;97700.42;104808;1262;97244;-81
2023/09/09 03:26:50;;;;;;;14.20;10.90;;;;;;;11.83;77.83;97701.30;104904;1258;100944;-81
2023/09/09 03:29:17;;;;;;;15.30;11.10;;;;;;;11.79;78.00;97700.41;104906;1268;101382;-81
2023/09/09 03:31:45;;;;;;;14.40;11.00;;;;;;;11.80;78.18;97700.49;104874;1267;98715;-81
2023/09/09 03:34:13;;;;;;;17.20;11.50;;;;;;;11.80;78.14;97701.48;104887;1273;96568;-81
2023/09/09 03:36:42;;;;;;;12.60;10.60;;;;;;;11.80;78.09;97702.95;104980;1260;97231;-74
2023/09/09 03:39:10;;;;;;;13.20;10.50;;;;;;;11.79;78.10;97706.02;104895;1267;101284;-74
2023/09/09 03:41:39;;;;;;;13.50;10.10;;;;;;;11.77;78.02;97705.77;104756;1269;101443;-75
2023/09/09 03:44:07;;;;;;;12.60;9.80;;;;;;;11.76;78.00;97705.20;104875;1267;100183;-74
2023/09/09 03:46:35;;;;;;;15.90;10.20;;;;;;;11.72;77.91;97707.71;104864;1267;96731;-74
2023/09/09 03:49:03;;;;;;;13.90;11.80;;;;;;;11.66;77.89;97706.55;104852;1260;97075;-74
2023/09/09 03:51:30;;;;;;;15.90;12.60;;;;;;;11.65;78.14;97702.56;104905;1267;102293;-74
2023/09/09 03:53:58;;;;;;;19.60;13.50;;;;;;;11.65;78.36;97703.19;104879;1254;101495;-74
2023/09/09 03:56:26;;;;;;;25.70;15.00;;;;;;;11.64;78.67;97707.34;104878;1254;99960;-81
2023/09/09 03:58:53;;;;;;;23.80;15.20;;;;;;;11.63;78.85;97708.97;104951;1267;97937;-81
2023/09/09 04:01:21;;;;;;;19.50;14.50;;;;;;;11.62;79.12;97709.63;104911;1268;97093;-73
2023/09/09 04:03:49;;;;;;;23.30;15.70;;;;;;;11.63;79.11;97711.64;104886;1259;102413;-73
2023/09/09 04:06:19;;;;;;;18.70;13.60;;;;;;;11.65;79.08;97712.60;104893;1276;101132;-73
2023/09/09 04:08:46;;;;;;;19.20;13.20;;;;;;;11.68;79.12;97710.92;104983;1261;97593;-73
2023/09/09 04:11:14;;;;;;;17.30;13.00;;;;;;;11.70;79.10;97712.36;104902;1273;96646;-73
2023/09/09 04:13:42;;;;;;;21.10;13.70;;;;;;;11.74;79.02;97718.73;104947;1263;97093;-83
2023/09/09 04:16:09;;;;;;;21.70;16.50;;;;;;;11.76;79.01;97715.77;104846;1268;101165;-83
2023/09/09 04:18:37;;;;;;;22.20;14.90;;;;;;;11.77;79.03;97715.48;104904;1260;101530;-83
2023/09/09 04:21:05;;;;;;;19.80;15.60;;;;;;;11.78;79.08;97718.55;104907;1268;99764;-82
2023/09/09 04:23:33;;;;;;;20.90;15.20;;;;;;;11.79;79.16;97721.63;104879;1267;96648;-82
2023/09/09 04:26:00;;;;;;;19.70;14.20;;;;;;;11.80;79.23;97720.27;104916;1267;96564;-82
2023/09/09 04:28:28;;;;;;;17.50;13.70;;;;;;;11.82;79.29;97720.05;104901;1260;102240;-82
2023/09/09 04:30:56;;;;;;;18.30;13.40;;;;;;;11.83;79.22;97720.40;104878;1269;101367;-83
2023/09/09 04:33:23;;;;;;;19.20;15.10;;;;;;;11.83;79.22;97720.73;104854;1268;98276;-82
2023/09/09 04:35:51;;;;;;;20.10;14.70;;;;;;;11.83;79.22;97724.58;104895;1259;96785;-73
2023/09/09 04:38:20;;;;;;;21.10;16.50;;;;;;;11.83;79.19;97723.11;104538;1260;97410;-73
2023/09/09 04:40:47;;;;;;;22.90;16.30;;;;;;;11.83;79.32;97723.73;104534;1263;101257;-73
2023/09/09 04:43:15;;;;;;;20.80;17.10;;;;;;;11.82;79.41;97722.91;104523;1270;100533;-73
2023/09/09 04:45:43;;;;;;;24.60;17.50;;;;;;;11.82;79.40;97722.38;104554;1273;100043;-73
2023/09/09 04:48:11;;;;;;;24.90;17.60;;;;;;;11.83;79.49;97721.45;104508;1261;96709;-72
2023/09/09 04:50:38;;;;;;;24.00;16.20;;;;;;;11.85;79.42;97722.65;104640;1273;97125;-73
2023/09/09 04:53:06;;;;;;;24.20;18.50;;;;;;;11.85;79.65;97721.73;104529;1271;102608;-73
2023/09/09 04:55:34;;;;;;;25.20;18.20;;;;;;;11.82;80.03;97725.31;104558;1262;108891;-73
2023/09/09 04:58:02;;;;;;;20.50;16.80;;;;;;;11.77;80.35;97729.12;104581;1262;98768;-73
2023/09/09 05:00:30;;;;;;;25.30;17.40;;;;;;;11.75;80.44;97726.02;104638;1270;97823;-73
2023/09/09 05:02:57;;;;;;;21.60;15.60;;;;;;;11.77;80.37;97726.04;104612;1270;97269;-73
2023/09/09 05:05:25;;;;;;;21.90;15.40;;;;;;;11.84;80.49;97728.17;104526;1263;101931;-73
2023/09/09 05:07:53;;;;;;;23.40;16.20;;;;;;;11.89;80.53;97724.27;104577;1270;108183;-73
2023/09/09 05:10:22;;;;;;;21.10;16.40;;;;;;;11.93;80.47;97726.22;104712;1267;100024;-73
2023/09/09 05:12:50;;;;;;;20.70;15.80;;;;;;;11.98;80.46;97725.41;104865;1264;97816;-82
2023/09/09 05:15:18;;;;;;;23.40;15.20;;;;;;;12.02;80.55;97728.85;104931;1267;98419;-74
2023/09/09 05:17:45;;;;;;;19.60;14.70;;;;;;;12.04;80.63;97727.56;104890;1267;102377;-74
2023/09/09 05:20:13;;;;;;;20.80;15.00;;;;;;;12.07;80.85;97729.83;104930;1268;101521;-74
2023/09/09 05:22:41;;;;;;;21.40;15.40;;;;;;;12.09;81.18;97729.77;104864;1258;100000;-74
2023/09/09 05:25:09;;;;;;;23.70;15.60;;;;;;;12.12;81.04;97727.86;104981;1257;96714;-74
2023/09/09 05:27:37;;;;;;;25.40;14.90;;;;;;;12.17;81.23;97725.94;105073;1260;97022;-74
2023/09/09 05:30:06;;;;;;;20.00;14.40;;;;;;;12.22;81.38;97726.66;108439;1254;101031;-75
2023/09/09 05:32:35;;;;;;;20.90;15.20;;;;;;;12.27;81.47;97729.06;105346;1255;100364;-83
2023/09/09 05:35:03;;;;;;;26.90;15.20;;;;;;;12.33;81.46;97727.36;105022;1254;98375;-83
2023/09/09 05:37:31;;;;;;;20.30;14.80;;;;;;;12.38;81.50;97728.89;108324;1254;94518;-83
2023/09/09 05:40:00;;;;;;;18.60;14.30;;;;;;;12.44;81.53;97724.70;108701;1254;94677;-83
2023/09/09 05:42:28;;;;;;;16.60;14.40;;;;;;;12.50;81.74;97722.34;105148;1263;101888;-81
2023/09/09 05:44:56;;;;;;;19.60;14.00;;;;;;;12.56;81.64;97718.42;104915;1263;101475;-81
2023/09/09 05:47:23;;;;;;;18.00;14.20;;;;;;;12.61;81.79;97720.41;104830;1261;98745;-73
2023/09/09 05:49:51;;;;;;;18.60;14.10;;;;;;;12.66;81.85;97722.27;104915;1260;96609;-72
2023/09/09 05:52:19;;;;;;;17.10;14.70;;;;;;;12.72;81.85;97721.06;104879;1267;96935;-72
2023/09/09 05:54:46;;;;;;;16.70;14.20;;;;;;;12.79;81.92;97723.94;104869;1261;102261;-72
2023/09/09 05:57:14;;;;;;;16.10;13.80;;;;;;;12.84;81.89;97724.02;104848;1260;101721;-72
2023/09/09 05:59:42;;;;;;;16.80;13.60;;;;;;;12.89;81.91;97727.25;104884;1261;97895;-72
2023/09/09 06:02:10;;;;;;;16.10;13.30;;;;;;;12.95;82.07;97729.23;105054;1257;96658;-83
2023/09/09 06:04:38;;;;;;;14.20;12.50;;;;;;;13.02;82.22;97732.79;104560;1264;98209;-82
2023/09/09 06:07:05;;;;;;;14.80;12.70;;;;;;;13.08;82.35;97730.40;104440;1280;170845;-83
2023/09/09 06:09:33;;;;;;;16.20;13.40;;;;;;;13.13;82.60;97733.60;104608;1263;101504;-72
2023/09/09 06:12:02;;;;;;;19.60;14.00;;;;;;;13.19;82.50;97734.81;104569;1271;99401;-72
2023/09/09 06:14:30;;;;;;;17.40;14.70;;;;;;;13.26;82.56;97734.02;104552;1275;96690;-72
2023/09/09 06:16:58;;;;;;;19.20;14.40;;;;;;;13.34;82.84;97735.30;104612;1261;97205;-73
2023/09/09 06:19:26;;;;;;;17.00;14.80;;;;;;;13.41;83.01;97734.55;104580;1263;101861;-73
2023/09/09 06:21:53;;;;;;;18.20;14.60;;;;;;;13.48;83.13;97730.67;104585;1263;101482;-73
2023/09/09 06:24:21;;;;;;;18.40;14.30;;;;;;;13.56;83.25;97733.73;104681;1261;100086;-74
2023/09/09 06:26:49;;;;;;;16.60;13.30;;;;;;;13.63;83.34;97739.51;105214;1262;97479;-74
2023/09/09 06:29:16;;;;;;;19.00;14.00;;;;;;;13.72;83.34;97739.89;104611;1261;96639;-74
2023/09/09 06:31:44;;;;;;;14.60;12.80;;;;;;;13.80;83.40;97740.14;104574;1264;101303;-82
2023/09/09 06:34:12;;;;;;;15.30;13.70;;;;;;;13.89;83.32;97741.39;104638;1258;101194;-83
2023/09/09 06:36:39;;;;;;;15.30;13.70;;;;;;;13.98;83.31;97738.88;104830;1273;99103;-83
2023/09/09 06:39:07;;;;;;;17.00;14.00;;;;;;;14.08;83.45;97735.09;104851;1270;96517;-82
2023/09/09 06:41:34;;;;;;;20.20;14.70;;;;;;;14.18;83.69;97734.61;104903;1257;98235;-83
2023/09/09 06:44:03;;;;;;;22.60;15.00;;;;;;;14.26;84.13;97736.81;104903;1268;102255;-83
2023/09/09 06:46:30;;;;;;;16.40;14.60;;;;;;;14.34;83.89;97734.63;104684;1254;101122;-83
2023/09/09 06:48:58;;;;;;;18.50;14.80;;;;;;;14.44;83.65;97737.16;104885;1260;99877;-74
2023/09/09 06:51:26;;;;;;;16.20;13.80;;;;;;;14.54;83.79;97740.55;104549;1263;96595;-74
2023/09/09 06:53:54;;;;;;;16.90;13.70;;;;;;;14.65;83.79;97741.80;104944;1260;97100;-73
2023/09/09 06:56:22;;;;;;;16.90;14.10;;;;;;;14.77;83.81;97745.98;104836;1258;101013;-73
2023/09/09 06:58:49;;;;;;;15.10;13.50;;;;;;;14.88;83.73;97744.95;104868;1267;101587;-73
2023/09/09 07:01:17;;;;;;;15.20;13.40;;;;;;;15.00;83.70;97749.25;104902;1254;99785;-73
2023/09/09 07:03:45;;;;;;;16.40;14.20;;;;;;;15.12;83.66;97750.13;104988;1267;97990;-73
2023/09/09 07:06:13;;;;;;;17.90;13.90;;;;;;;15.25;83.78;97750.84;104919;1255;97509;-79
2023/09/09 07:08:41;;;;;;;16.60;13.80;;;;;;;15.38;83.59;97750.15;104841;1259;102107;-81
2023/09/09 07:11:09;;;;;;;15.30;13.20;;;;;;;15.50;83.66;97748.23;104847;1266;100423;-80
2023/09/09 07:13:36;;;;;;;16.80;13.80;;;;;;;15.63;83.56;97749.06;104839;1258;100057;-80
2023/09/09 07:16:04;;;;;;;17.80;13.50;;;;;;;15.76;83.47;97752.48;104854;1254;97494;-74
2023/09/09 07:18:32;;;;;;;16.30;13.70;;;;;;;15.89;83.54;97750.18;104911;1260;96580;-74
2023/09/09 07:21:00;;;;;;;19.30;13.60;;;;;;;16.07;83.76;97752.21;104878;1260;101740;-74
2023/09/09 07:23:28;;;;;;;14.20;12.60;;;;;;;16.29;83.63;97754.22;104643;1261;101504;-74
2023/09/09 07:25:56;;;;;;;14.20;12.30;;;;;;;16.49;83.49;97751.23;104935;1268;98478;-81
2023/09/09 07:28:24;;;;;;;16.00;12.60;;;;;;;16.70;83.32;97754.46;104873;1257;97911;-81
2023/09/09 07:30:52;;;;;;;15.60;12.90;;;;;;;16.93;83.04;97748.10;104892;1268;97159;-81
2023/09/09 07:33:20;;;;;;;16.50;12.60;;;;;;;17.22;82.84;97746.09;104834;1268;102282;-81
2023/09/09 07:35:52;;;;;;;12.80;11.40;;;;;;;17.60;82.42;97747.08;104881;1257;100465;-82
2023/09/09 07:38:20;;;;;;;13.80;10.90;;;;;;;18.04;82.18;97743.33;104705;1257;98392;-81
2023/09/09 07:40:48;;;;;;;13.90;11.60;;;;;;;18.49;81.39;97743.40;104695;1271;97067;-81
2023/09/09 07:43:18;;;;;;;13.70;10.70;;;;;;;18.95;80.82;97740.32;104781;1270;98562;-82
2023/09/09 07:45:48;;;;;;;12.20;10.50;;;;;;;19.42;80.25;97740.80;104728;1270;100709;-80
2023/09/09 07:48:16;;;;;;;14.60;10.90;;;;;;;19.88;79.52;97738.91;104722;1261;101260;-81
2023/09/09 07:50:51;;;;;;;14.60;10.60;;;;;;;20.32;78.77;97739.55;104689;1260;99208;-82
2023/09/09 07:53:20;;;;;;;12.60;10.20;;;;;;;20.75;77.97;97739.70;104557;1263;97789;-81
2023/09/09 07:55:52;;;;;;;13.20;9.90;;;;;;;21.10;76.03;97742.63;104343;1276;97544;-82
2023/09/09 07:58:20;;;;;;;10.60;9.50;;;;;;;21.46;75.61;97738.66;104774;1269;102422;-81
2023/09/09 08:00:48;;;;;;;14.70;9.60;;;;;;;21.85;74.82;97738.05;104731;1260;101472;-80
2023/09/09 08:03:16;;;;;;;13.80;9.80;;;;;;;22.20;73.70;97737.65;104750;1267;99048;-80
2023/09/09 08:05:43;;;;;;;13.60;9.60;;;;;;;22.55;73.00;97734.70;104542;1264;97889;-74
2023/09/09 08:08:11;;;;;;;13.30;9.10;;;;;;;22.95;72.40;97728.90;104772;1261;97006;-74
2023/09/09 08:10:39;;;;;;;13.40;9.30;;;;;;;23.35;71.31;97728.12;104891;1267;102068;-74
2023/09/09 08:13:07;;;;;;;11.50;9.30;;;;;;;23.71;70.08;97728.59;104959;1257;102111;-73
2023/09/09 08:15:34;;;;;;;13.40;9.80;;;;;;;24.07;68.99;97730.53;104892;1276;99227;-81
2023/09/09 08:18:02;;;;;;;11.30;9.80;;;;;;;24.39;67.09;97729.52;104939;1267;96642;-82
2023/09/09 08:20:30;;;;;;;14.70;11.20;;;;;;;24.64;66.70;97729.52;104822;1261;97253;-81
2023/09/09 08:22:58;;;;;;;11.70;10.00;;;;;;;24.96;66.19;97726.10;104939;1270;101754;-81
2023/09/09 08:25:26;;;;;;;12.60;10.30;;;;;;;25.29;65.26;97725.92;104864;1254;101381;-74
2023/09/09 08:27:54;;;;;;;11.30;10.00;;;;;;;25.63;63.99;97725.65;104886;1267;100446;-74
2023/09/09 08:30:24;;;;;;;15.10;9.60;;;;;;;25.93;63.00;97729.09;104863;1255;96584;-74
2023/09/09 08:32:52;;;;;;;12.50;9.40;;;;;;;26.19;61.61;97729.80;104925;1257;97121;-79
2023/09/09 08:35:20;;;;;;;10.40;9.20;;;;;;;26.41;60.51;97724.55;104924;1270;102436;-79
2023/09/09 08:37:48;;;;;;;10.70;9.40;;;;;;;26.58;59.90;97718.39;104828;1260;101587;-79
2023/09/09 08:40:16;;;;;;;12.10;9.00;;;;;;;26.81;59.57;97716.94;104927;1258;100033;-79
2023/09/09 08:43:17;;;;;;;11.00;8.80;;;;;;;27.07;58.97;97713.42;104928;1272;96569;-78
2023/09/09 08:46:09;;;;;;;12.30;9.00;;;;;;;27.31;57.34;97708.29;104948;1259;98321;-77
2023/09/09 08:48:38;;;;;;;11.10;8.30;;;;;;;27.43;56.56;97709.10;104802;1258;102057;-78
2023/09/09 08:51:09;;;;;;;9.20;8.20;;;;;;;27.50;56.81;97709.33;104887;1254;101438;-79
2023/09/09 08:53:40;;;;;;;10.40;7.90;;;;;;;27.61;56.50;97710.44;104763;1260;107907;-78
2023/09/09 08:56:08;;;;;;;9.90;7.20;;;;;;;27.71;55.11;97710.96;104672;1262;97391;-78
2023/09/09 08:58:36;;;;;;;8.90;8.00;;;;;;;27.78;54.72;97709.24;104917;1258;97115;-79
2023/09/09 09:01:06;;;;;;;11.50;8.00;;;;;;;27.85;54.53;97704.58;104705;1259;101824;-79
2023/09/09 09:03:34;;;;;;;8.60;7.70;;;;;;;27.98;54.03;97702.89;104975;1260;100448;-80
2023/09/09 09:06:06;;;;;;;12.00;8.80;;;;;;;28.10;54.15;97701.98;104894;1258;99871;-80
2023/09/09 09:08:34;;;;;;;12.60;8.60;;;;;;;28.21;53.64;97698.74;104657;1254;97947;-79
2023/09/09 09:11:04;;;;;;;11.30;8.30;;;;;;;28.34;53.28;97699.77;105012;1254;96567;-81
2023/09/09 09:13:32;;;;;;;10.00;8.90;;;;;;;28.46;52.82;97694.73;104755;1263;101198;-80
2023/09/09 09:16:00;;;;;;;9.40;8.50;;;;;;;28.55;52.23;97692.44;104964;1259;101611;-81
2023/09/09 09:18:28;;;;;;;10.70;8.80;;;;;;;28.66;52.03;97693.06;104912;1262;100075;-82
2023/09/09 09:21:07;;;;;;;9.80;8.50;;;;;;;28.81;51.54;97692.52;104853;1258;96621;-78
2023/09/09 09:23:42;;;;;;;12.10;7.50;;;;;;;28.89;51.21;97691.75;104457;1267;97116;-77
2023/09/09 09:26:27;;;;;;;10.10;7.90;;;;;;;28.95;51.03;97686.71;104972;1254;101341;-77
2023/09/09 09:28:55;;;;;;;9.10;7.80;;;;;;;29.04;50.96;97687.80;108546;1254;100409;-79
2023/09/09 09:31:24;;;;;;;8.60;7.70;;;;;;;29.12;50.52;97684.02;105102;1267;100329;-78
2023/09/09 09:33:53;;;;;;;8.80;7.70;;;;;;;29.14;51.05;97675.77;104833;1259;97253;-78
2023/09/09 09:36:22;;;;;;;11.70;8.30;;;;;;;29.24;50.68;97676.34;104782;1257;97240;-79
2023/09/09 09:38:53;;;;;;;10.50;9.10;;;;;;;29.37;50.54;97676.40;104906;1258;102223;-78
2023/09/09 09:41:23;;;;;;;8.50;7.50;;;;;;;29.47;49.72;97677.82;104822;1259;101839;-74
2023/09/09 09:43:52;;;;;;;9.40;6.80;;;;;;;29.55;48.85;97672.89;104914;1270;100086;-74
2023/09/09 09:46:22;;;;;;;7.70;6.90;;;;;;;29.49;48.44;97675.00;104944;1260;97087;-75
2023/09/09 09:48:50;;;;;;;8.60;7.10;;;;;;;29.49;48.68;97675.20;104629;1254;97103;-75
2023/09/09 09:51:18;;;;;;;10.10;6.90;;;;;;;29.54;48.55;97678.70;104590;1262;101998;-75
2023/09/09 09:53:48;;;;;;;10.60;7.10;;;;;;;29.68;48.64;97677.95;104848;1259;100076;-75
2023/09/09 09:56:17;;;;;;;7.10;6.30;;;;;;;29.84;48.21;97678.95;104908;1271;98938;-75
2023/09/09 09:58:46;;;;;;;15.00;8.60;;;;;;;29.94;47.67;97677.19;104927;1260;96568;-79
2023/09/09 10:01:14;;;;;;;12.20;8.00;;;;;;;30.05;47.29;97677.38;104904;1255;97090;-80
2023/09/09 10:03:46;;;;;;;10.80;7.20;;;;;;;30.18;46.67;97674.98;104828;1270;102501;-80
2023/09/09 10:06:19;;;;;;;11.50;8.90;;;;;;;30.27;46.40;97675.20;104912;1257;101313;-80
2023/09/09 10:08:50;;;;;;;7.40;6.50;;;;;;;30.29;45.24;97673.16;104938;1268;98938;-81
2023/09/09 10:11:25;;;;;;;11.40;6.10;;;;;;;30.24;45.52;97667.77;104620;1264;97470;-80
2023/09/09 10:14:13;;;;;;;9.10;6.70;;;;;;;30.31;45.79;97665.58;104895;1255;97190;-80
2023/09/09 10:16:43;;;;;;;11.90;7.90;;;;;;;30.35;45.77;97662.42;104967;1260;101506;-78
2023/09/09 10:19:13;;;;;;;9.10;7.70;;;;;;;30.38;45.21;97662.15;104724;1261;101449;-80
2023/09/09 10:21:42;;;;;;;8.20;7.20;;;;;;;30.44;45.01;97662.64;104663;1262;99621;-79
2023/09/09 10:24:11;;;;;;;9.20;6.80;;;;;;;30.47;45.02;97660.23;105000;1253;96571;-80
2023/09/09 10:26:40;;;;;;;7.00;6.10;;;;;;;30.50;44.89;97657.94;104663;1255;97004;-80
2023/09/09 10:29:09;;;;;;;9.40;6.50;;;;;;;30.44;44.60;97657.70;104933;1258;101329;-79
2023/09/09 10:31:39;;;;;;;7.20;6.30;;;;;;;30.39;44.16;97655.70;104994;1254;101524;-78
2023/09/09 10:34:10;;;;;;;9.00;6.60;;;;;;;30.39;44.47;97651.63;104776;1276;100141;-79
2023/09/09 10:36:38;;;;;;;10.10;6.90;;;;;;;30.40;44.62;97653.39;104868;1260;96715;-78
2023/09/09 10:39:07;;;;;;;10.30;6.50;;;;;;;30.40;43.83;97652.33;104984;1258;97096;-79
2023/09/09 10:41:35;;;;;;;7.10;6.40;;;;;;;30.33;44.06;97653.21;104562;1260;102234;-80
2023/09/09 10:44:04;;;;;;;6.80;6.10;;;;;;;30.26;43.65;97652.66;104964;1260;100473;-79
2023/09/09 10:46:37;;;;;;;7.30;6.60;;;;;;;30.17;44.05;97651.39;104688;1274;100000;-78
2023/09/09 10:49:05;;;;;;;7.60;6.70;;;;;;;30.14;43.86;97651.92;104661;1262;98162;-79
2023/09/09 10:51:49;;;;;;;7.60;6.80;;;;;;;30.15;43.63;97648.39;104653;1270;97240;-79
2023/09/09 10:54:24;;;;;;;7.60;6.70;;;;;;;30.04;43.34;97644.22;104525;1264;101868;-79
2023/09/09 10:56:57;;;;;;;15.70;8.40;;;;;;;29.95;43.85;97643.89;104735;1260;101429;-78
2023/09/09 10:59:28;;;;;;;12.70;8.20;;;;;;;29.96;43.73;97642.76;104736;1269;99939;-79
2023/09/09 11:02:43;;;;;;;13.80;8.70;;;;;;;29.98;43.84;97643.52;104774;1259;96670;-79
2023/09/09 11:05:13;;;;;;;11.40;8.10;;;;;;;29.99;43.96;97637.48;104283;1268;97126;-78
2023/09/09 11:07:45;;;;;;;12.50;7.80;;;;;;;29.99;43.98;97636.21;104348;1267;102315;-79
2023/09/09 11:10:17;;;;;;;13.90;9.70;;;;;;;29.97;43.94;97637.33;104229;1263;101374;-79
2023/09/09 11:12:58;;;;;;;9.50;6.60;;;;;;;29.89;44.70;97639.88;104284;1280;98992;-79
2023/09/09 11:15:26;;;;;;;7.60;6.10;;;;;;;29.85;44.98;97635.00;104067;1273;98435;-79
2023/09/09 11:17:54;;;;;;;7.70;6.90;;;;;;;29.86;44.46;97632.58;104309;1266;97195;-80